Time;durP1;ratioP1;P1;durP2;ratioP2;P2;SDS_P1;SDS_P2;PMS_P1;PMS_P2;Temp;Humidity;BMP_temperature;BMP_pressure;BME280_temperature;BME280_humidity;BME280_pressure;Samples;Min_cycle;Max_cycle;Signal;HPM_P1;HPM_P2
2022/09/29 00:00:29;;;;;;;1.20;0.80;;;4.40;99.90;;;;;;4991216;28;20058;-73
2022/09/29 00:02:55;;;;;;;1.20;0.60;;;4.40;99.90;;;;;;4991420;28;20049;-73
2022/09/29 00:05:21;;;;;;;2.10;1.10;;;4.40;99.90;;;;;;5011893;28;20108;-73
2022/09/29 00:07:46;;;;;;;1.53;1.00;;;4.40;99.90;;;;;;4983814;28;20137;-73
2022/09/29 00:10:12;;;;;;;2.27;1.13;;;4.40;99.90;;;;;;5011525;28;20050;-73
2022/09/29 00:12:38;;;;;;;3.57;1.50;;;4.40;99.90;;;;;;5006836;28;20120;-72
2022/09/29 00:15:04;;;;;;;1.40;1.20;;;4.60;99.90;;;;;;5001253;28;20041;-73
2022/09/29 00:17:30;;;;;;;2.67;1.40;;;4.50;99.90;;;;;;4997292;28;20041;-72
2022/09/29 00:19:56;;;;;;;3.10;1.20;;;4.60;99.90;;;;;;5011177;28;20048;-73
2022/09/29 00:22:21;;;;;;;3.83;1.83;;;4.50;99.90;;;;;;5010139;28;20062;-72
2022/09/29 00:24:47;;;;;;;5.73;1.90;;;4.50;99.90;;;;;;5011318;28;20052;-73
2022/09/29 00:27:14;;;;;;;2.10;1.80;;;4.60;99.90;;;;;;4995091;28;20575;-73
2022/09/29 00:29:40;;;;;;;3.10;1.83;;;4.50;99.90;;;;;;4993310;28;20497;-73
2022/09/29 00:32:05;;;;;;;5.17;1.77;;;4.50;99.90;;;;;;4992574;28;20042;-72
2022/09/29 00:34:31;;;;;;;8.63;1.60;;;4.40;99.90;;;;;;5011132;28;20457;-73
2022/09/29 00:36:57;;;;;;;49.80;3.00;;;4.40;99.90;;;;;;4995363;28;20037;-73
2022/09/29 00:39:22;;;;;;;39.73;2.37;;;4.40;99.90;;;;;;5010981;28;20477;-73
2022/09/29 00:41:48;;;;;;;15.93;1.33;;;4.30;99.90;;;;;;4977924;28;20042;-73
2022/09/29 00:44:14;;;;;;;2.07;1.33;;;4.40;99.90;;;;;;4981076;28;20042;-73
2022/09/29 00:46:41;;;;;;;1.90;1.20;;;4.40;99.90;;;;;;4992306;28;20133;-73
2022/09/29 00:49:22;;;;;;;2.47;1.80;;;4.30;99.90;;;;;;5008839;28;20081;-72
2022/09/29 00:51:53;;;;;;;2.07;1.47;;;4.50;99.90;;;;;;4993084;28;20124;-72
2022/09/29 00:54:20;;;;;;;1.60;1.20;;;4.60;99.90;;;;;;4963525;28;20498;-72
2022/09/29 00:56:48;;;;;;;3.17;2.27;;;4.40;99.90;;;;;;4958115;28;20050;-73
2022/09/29 00:59:24;;;;;;;2.20;1.73;;;4.60;99.90;;;;;;4972459;28;20047;-73
2022/09/29 01:01:51;;;;;;;2.30;1.47;;;4.60;99.90;;;;;;4981780;28;20551;-72
2022/09/29 01:04:18;;;;;;;4.33;1.10;;;4.50;99.90;;;;;;4989948;28;20037;-73
2022/09/29 01:06:57;;;;;;;4.00;1.20;;;4.40;99.90;;;;;;4995346;28;20505;-72
2022/09/29 01:09:36;;;;;;;2.83;1.60;;;4.30;99.90;;;;;;4992069;28;20042;-72
2022/09/29 01:12:03;;;;;;;3.07;2.07;;;4.30;99.90;;;;;;5010395;28;20046;-72
2022/09/29 01:14:30;;;;;;;130.13;6.17;;;4.30;99.90;;;;;;4990238;28;20093;-72
2022/09/29 01:16:56;;;;;;;69.10;3.93;;;4.20;99.90;;;;;;4958472;28;20112;-72
2022/09/29 01:19:50;;;;;;;1.90;1.50;;;4.20;99.90;;;;;;4963161;28;20482;-72
2022/09/29 01:22:44;;;;;;;2.30;1.97;;;4.20;99.90;;;;;;5009417;28;20079;-72
2022/09/29 01:25:38;;;;;;;9.87;2.00;;;4.20;99.90;;;;;;5010012;28;20049;-72
2022/09/29 01:28:10;;;;;;;3.13;1.90;;;4.20;99.90;;;;;;4993827;28;20053;-73
2022/09/29 01:30:57;;;;;;;2.50;1.73;;;4.20;99.90;;;;;;5009910;28;20045;-72
2022/09/29 01:34:00;;;;;;;4.23;2.57;;;4.20;99.90;;;;;;5009223;28;20050;-72
2022/09/29 01:36:56;;;;;;;6.93;2.60;;;4.20;99.90;;;;;;4967077;28;20361;-73
2022/09/29 01:39:29;;;;;;;3.17;2.30;;;4.20;99.90;;;;;;5009366;28;20279;-72
2022/09/29 01:42:09;;;;;;;5.10;3.00;;;4.10;99.90;;;;;;5010336;28;20038;-73
2022/09/29 01:45:01;;;;;;;38.97;4.30;;;4.10;99.90;;;;;;5009336;28;20124;-72
2022/09/29 01:47:37;;;;;;;4.40;3.10;;;4.20;99.90;;;;;;4981375;28;20055;-72
2022/09/29 01:50:13;;;;;;;5.40;3.23;;;4.20;99.90;;;;;;5007227;28;20073;-73
2022/09/29 01:52:47;;;;;;;5.43;3.47;;;4.30;99.90;;;;;;4991730;28;20070;-72
2022/09/29 01:55:17;;;;;;;4.07;2.80;;;4.30;99.90;;;;;;4992222;28;20415;-73
2022/09/29 01:57:53;;;;;;;2.80;2.08;;;4.30;99.90;;;;;;4977082;28;20303;-72
2022/09/29 02:00:22;;;;;;;6.47;2.27;;;4.10;99.90;;;;;;4996399;28;20054;-73
2022/09/29 02:03:13;;;;;;;116.63;5.20;;;4.00;99.90;;;;;;4995511;28;20058;-72
2022/09/29 02:05:54;;;;;;;177.32;6.85;;;3.90;99.90;;;;;;4995245;28;20116;-73
2022/09/29 02:08:31;;;;;;;112.03;5.13;;;3.90;99.90;;;;;;4986561;28;20045;-72
2022/09/29 02:11:04;;;;;;;59.43;3.17;;;3.70;99.90;;;;;;4979307;28;20073;-73
2022/09/29 02:13:59;;;;;;;15.80;1.83;;;3.70;99.90;;;;;;4994539;28;20153;-73
2022/09/29 02:16:37;;;;;;;1.73;1.40;;;3.70;99.90;;;;;;4989286;28;20478;-73
2022/09/29 02:19:21;;;;;;;10.23;1.87;;;3.60;99.90;;;;;;4993392;28;20050;-72
2022/09/29 02:21:47;;;;;;;14.10;2.17;;;3.60;99.90;;;;;;5013269;28;20089;-72
2022/09/29 02:24:13;;;;;;;7.03;2.70;;;3.60;99.90;;;;;;5012479;28;20127;-73
2022/09/29 02:26:40;;;;;;;2.10;1.90;;;3.60;99.90;;;;;;4999152;28;20053;-73
2022/09/29 02:29:07;;;;;;;2.17;1.97;;;3.70;99.90;;;;;;4993166;28;20080;-73
2022/09/29 02:31:34;;;;;;;3.20;2.33;;;3.80;99.90;;;;;;5013189;28;20465;-73
2022/09/29 02:34:02;;;;;;;2.67;2.27;;;3.80;99.90;;;;;;5012007;28;20042;-73
2022/09/29 02:36:48;;;;;;;3.80;2.60;;;3.80;99.90;;;;;;5000536;28;20046;-73
2022/09/29 02:39:45;;;;;;;3.33;2.80;;;3.90;99.90;;;;;;4985151;28;20125;-73
2022/09/29 02:42:35;;;;;;;3.53;2.50;;;3.80;99.90;;;;;;4983137;28;20072;-72
2022/09/29 02:45:26;;;;;;;4.93;2.90;;;3.80;99.90;;;;;;4995487;28;20409;-73
2022/09/29 02:47:55;;;;;;;5.50;3.60;;;3.90;99.90;;;;;;4996518;28;20316;-73
2022/09/29 02:50:41;;;;;;;7.47;5.17;;;4.00;99.90;;;;;;5013231;28;20046;-73
2022/09/29 02:53:37;;;;;;;11.60;5.13;;;4.10;99.90;;;;;;5012371;28;20049;-73
2022/09/29 02:56:24;;;;;;;49.13;5.20;;;4.00;99.90;;;;;;4995344;28;20057;-73
2022/09/29 02:59:19;;;;;;;115.40;6.40;;;3.80;99.90;;;;;;5008656;28;20512;-73
2022/09/29 03:01:56;;;;;;;102.23;5.70;;;3.70;99.90;;;;;;5007169;28;20440;-73
2022/09/29 03:04:24;;;;;;;112.33;6.07;;;3.70;99.90;;;;;;4992129;28;20058;-73
2022/09/29 03:06:50;;;;;;;83.70;4.97;;;3.60;99.90;;;;;;4987479;28;20118;-73
2022/09/29 03:09:17;;;;;;;81.93;5.33;;;3.60;99.90;;;;;;4991379;28;20557;-73
2022/09/29 03:11:42;;;;;;;37.93;4.40;;;3.50;99.90;;;;;;4985715;28;20132;-73
2022/09/29 03:14:08;;;;;;;30.33;3.23;;;3.40;99.90;;;;;;4980971;28;20140;-73
2022/09/29 03:16:34;;;;;;;40.73;3.60;;;3.40;99.90;;;;;;5005611;28;20046;-73
2022/09/29 03:19:00;;;;;;;25.53;2.90;;;3.40;99.90;;;;;;5009899;28;20049;-73
2022/09/29 03:21:27;;;;;;;65.10;3.80;;;3.30;99.90;;;;;;5012152;28;20112;-72
2022/09/29 03:23:52;;;;;;;6.47;2.60;;;3.40;99.90;;;;;;5011431;28;20058;-73
2022/09/29 03:26:19;;;;;;;6.33;3.03;;;3.30;99.90;;;;;;4984075;28;20111;-73
2022/09/29 03:28:44;;;;;;;15.20;2.70;;;3.40;99.90;;;;;;5006871;28;20560;-73
2022/09/29 03:31:10;;;;;;;7.67;3.30;;;3.40;99.90;;;;;;5000976;28;20078;-73
2022/09/29 03:33:37;;;;;;;11.00;3.13;;;3.40;99.90;;;;;;4991597;28;20069;-73
2022/09/29 03:36:07;;;;;;;8.13;3.73;;;3.40;99.90;;;;;;4992557;28;20054;-73
2022/09/29 03:38:34;;;;;;;26.37;4.70;;;3.30;99.90;;;;;;4981509;28;20056;-73
2022/09/29 03:40:59;;;;;;;24.13;4.33;;;3.40;99.90;;;;;;5005631;28;20050;-73
2022/09/29 03:43:25;;;;;;;33.23;5.47;;;3.40;99.90;;;;;;4977391;28;20042;-73
2022/09/29 03:45:53;;;;;;;42.53;5.63;;;3.40;99.90;;;;;;5000576;28;20050;-73
2022/09/29 03:48:20;;;;;;;57.77;5.50;;;3.30;99.90;;;;;;4981602;28;20049;-73
2022/09/29 03:50:47;;;;;;;71.70;6.03;;;3.30;99.90;;;;;;4993768;28;20057;-73
2022/09/29 03:53:13;;;;;;;64.77;5.50;;;3.30;99.90;;;;;;4993439;28;20053;-73
2022/09/29 03:55:39;;;;;;;47.20;4.70;;;3.20;99.90;;;;;;5012032;28;20104;-73
2022/09/29 03:58:05;;;;;;;58.40;4.97;;;3.20;99.90;;;;;;4973761;28;20490;-73
2022/09/29 04:00:31;;;;;;;66.60;6.00;;;3.20;99.90;;;;;;4992193;28;20058;-73
2022/09/29 04:02:56;;;;;;;15.43;3.97;;;3.00;99.90;;;;;;4996282;28;20061;-73
2022/09/29 04:05:22;;;;;;;18.53;3.57;;;3.10;99.90;;;;;;4992370;28;20050;-73
2022/09/29 04:07:48;;;;;;;26.37;3.90;;;3.10;99.90;;;;;;4977624;28;20053;-72
2022/09/29 04:10:14;;;;;;;13.60;4.10;;;3.10;99.90;;;;;;4993906;28;20052;-73
2022/09/29 04:12:40;;;;;;;28.37;4.50;;;3.10;99.90;;;;;;4993317;28;20068;-73
2022/09/29 04:15:06;;;;;;;7.63;6.30;;;3.20;99.90;;;;;;4990269;28;20080;-73
2022/09/29 04:17:32;;;;;;;7.00;5.30;;;3.30;99.90;;;;;;4996868;28;20412;-73
2022/09/29 04:19:57;;;;;;;7.97;5.17;;;3.40;99.90;;;;;;4993702;28;20131;-73
2022/09/29 04:22:23;;;;;;;6.93;4.50;;;3.30;99.90;;;;;;4992148;28;20505;-73
2022/09/29 04:24:49;;;;;;;5.10;4.40;;;3.20;99.90;;;;;;4990622;28;20096;-73
2022/09/29 04:27:15;;;;;;;7.77;4.83;;;3.20;99.90;;;;;;4994582;28;20041;-73
2022/09/29 04:29:41;;;;;;;7.03;5.40;;;3.20;99.90;;;;;;5011191;28;20050;-73
2022/09/29 04:32:07;;;;;;;35.23;6.77;;;3.30;99.90;;;;;;4992798;28;20044;-73
2022/09/29 04:34:33;;;;;;;9.23;5.70;;;3.10;99.90;;;;;;4993539;28;20050;-73
2022/09/29 04:36:59;;;;;;;11.50;6.53;;;3.10;99.90;;;;;;4995640;28;20041;-73
2022/09/29 04:39:25;;;;;;;11.93;7.23;;;3.10;99.90;;;;;;4992917;28;20072;-73
2022/09/29 04:41:51;;;;;;;9.00;7.43;;;3.20;99.90;;;;;;4993619;28;20038;-73
2022/09/29 04:44:21;;;;;;;21.60;6.43;;;3.30;99.90;;;;;;4992628;28;20068;-73
2022/09/29 04:46:51;;;;;;;7.40;6.30;;;3.20;99.90;;;;;;4995450;28;20037;-73
2022/09/29 04:49:18;;;;;;;11.30;8.23;;;3.20;99.90;;;;;;4976320;28;20096;-73
2022/09/29 04:51:44;;;;;;;20.50;12.47;;;3.30;99.90;;;;;;5006345;28;20077;-73
2022/09/29 04:54:09;;;;;;;22.97;15.40;;;3.50;99.90;;;;;;4972885;28;20042;-73
2022/09/29 04:56:35;;;;;;;29.30;17.23;;;3.90;99.90;;;;;;4959846;28;20516;-73
2022/09/29 04:59:00;;;;;;;37.43;21.90;;;4.20;99.90;;;;;;4987979;28;20056;-73
2022/09/29 05:01:26;;;;;;;47.90;24.40;;;4.40;99.90;;;;;;5008811;28;20234;-73
2022/09/29 05:03:52;;;;;;;50.03;25.43;;;4.70;99.90;;;;;;5009893;28;20525;-73
2022/09/29 05:06:18;;;;;;;106.47;44.30;;;4.80;99.90;;;;;;4975319;28;20053;-73
2022/09/29 05:08:44;;;;;;;89.10;38.17;;;4.80;99.90;;;;;;4967896;28;20054;-73
2022/09/29 05:11:10;;;;;;;94.20;38.73;;;4.70;99.90;;;;;;4962529;28;20482;-73
2022/09/29 05:13:36;;;;;;;157.47;48.40;;;4.80;99.90;;;;;;4964201;28;20050;-73
2022/09/29 05:16:03;;;;;;;121.60;48.67;;;4.80;99.90;;;;;;4976912;28;20085;-73
2022/09/29 05:18:29;;;;;;;134.80;34.37;;;4.80;99.90;;;;;;4994197;28;20049;-73
2022/09/29 05:20:55;;;;;;;97.93;23.83;;;4.70;99.90;;;;;;5010058;28;20065;-73
2022/09/29 05:23:21;;;;;;;114.53;19.47;;;4.50;99.90;;;;;;4991677;28;20034;-73
2022/09/29 05:25:47;;;;;;;67.33;14.33;;;4.20;99.90;;;;;;5010502;28;20046;-73
2022/09/29 05:28:14;;;;;;;92.13;15.67;;;4.10;99.90;;;;;;4993754;28;20041;-73
2022/09/29 05:30:40;;;;;;;30.63;15.63;;;3.90;99.90;;;;;;5010539;28;20038;-73
2022/09/29 05:33:06;;;;;;;45.33;20.40;;;4.00;99.90;;;;;;4973181;28;20050;-74
2022/09/29 05:35:32;;;;;;;80.50;43.17;;;4.30;99.90;;;;;;4987353;28;20084;-74
2022/09/29 05:37:58;;;;;;;36.03;21.27;;;4.40;99.90;;;;;;4973525;28;20061;-73
2022/09/29 05:40:24;;;;;;;53.53;22.10;;;4.50;99.90;;;;;;4975838;28;20408;-73
2022/09/29 05:42:50;;;;;;;74.00;24.77;;;4.50;99.90;;;;;;5005930;28;20034;-73
2022/09/29 05:45:16;;;;;;;99.60;26.60;;;4.60;99.90;;;;;;5006791;28;20129;-74
2022/09/29 05:47:43;;;;;;;88.43;25.30;;;4.60;99.90;;;;;;4968659;28;20058;-73
2022/09/29 05:50:12;;;;;;;112.87;28.37;;;4.60;99.90;;;;;;5012410;28;20054;-73
2022/09/29 05:52:39;;;;;;;57.53;23.63;;;4.60;99.90;;;;;;4972574;28;20492;-74
2022/09/29 05:55:08;;;;;;;50.50;22.23;;;4.50;99.90;;;;;;5007132;28;20052;-74
2022/09/29 05:57:34;;;;;;;55.27;23.20;;;4.60;99.90;;;;;;4973573;28;20049;-73
2022/09/29 06:00:01;;;;;;;60.50;24.90;;;4.60;99.90;;;;;;4989775;28;20389;-74
2022/09/29 06:02:26;;;;;;;51.07;23.53;;;4.60;99.90;;;;;;4971798;28;20057;-73
2022/09/29 06:04:52;;;;;;;44.47;22.47;;;4.60;99.90;;;;;;4982845;28;20120;-74
2022/09/29 06:07:18;;;;;;;51.13;24.20;;;4.60;99.90;;;;;;4989622;28;20061;-73
2022/09/29 06:09:44;;;;;;;40.60;22.03;;;4.60;99.90;;;;;;4997210;28;20096;-73
2022/09/29 06:12:10;;;;;;;39.20;22.17;;;4.70;99.90;;;;;;5005373;28;20078;-73
2022/09/29 06:14:35;;;;;;;36.20;22.40;;;4.70;99.90;;;;;;4989770;28;20560;-73
2022/09/29 06:17:01;;;;;;;33.50;20.67;;;4.70;99.90;;;;;;4974365;28;20132;-74
2022/09/29 06:19:27;;;;;;;22.63;15.53;;;4.70;99.90;;;;;;4984464;28;20125;-73
2022/09/29 06:21:52;;;;;;;21.33;13.27;;;4.60;99.90;;;;;;5006991;28;20057;-73
2022/09/29 06:24:18;;;;;;;18.73;13.70;;;4.50;99.90;;;;;;5005861;28;20244;-73
2022/09/29 06:26:44;;;;;;;17.63;12.70;;;4.40;99.90;;;;;;4968011;28;20477;-73
2022/09/29 06:29:09;;;;;;;16.73;11.70;;;4.50;99.90;;;;;;5005889;28;20560;-73
2022/09/29 06:31:35;;;;;;;15.77;11.63;;;4.40;99.90;;;;;;4985546;28;20432;-73
2022/09/29 06:34:03;;;;;;;18.80;12.60;;;4.50;99.90;;;;;;4974833;28;20042;-73
2022/09/29 06:39:18;;;;;;;17.40;11.20;;;4.60;99.90;;;;;;4980077;28;20049;-73
2022/09/29 06:41:50;;;;;;;19.50;11.20;;;4.60;99.90;;;;;;4988270;28;20037;-74
2022/09/29 06:44:16;;;;;;;14.83;10.33;;;4.60;99.90;;;;;;5007604;28;20044;-73
2022/09/29 06:46:42;;;;;;;14.10;10.57;;;4.50;99.90;;;;;;4953445;28;20413;-73
2022/09/29 06:49:10;;;;;;;16.70;10.43;;;4.60;99.90;;;;;;4991004;28;20050;-73
2022/09/29 06:51:36;;;;;;;22.50;11.00;;;4.60;99.90;;;;;;4976313;28;20045;-74
2022/09/29 06:54:01;;;;;;;19.03;9.47;;;4.70;99.90;;;;;;4991240;28;20042;-73
2022/09/29 06:56:28;;;;;;;22.63;11.47;;;4.70;99.90;;;;;;4996847;28;20037;-73
2022/09/29 06:58:54;;;;;;;27.93;15.90;;;4.70;99.90;;;;;;4987813;28;20073;-73
2022/09/29 07:01:19;;;;;;;43.70;19.47;;;4.90;99.90;;;;;;5007092;28;20060;-74
2022/09/29 07:03:45;;;;;;;34.30;18.30;;;4.90;99.90;;;;;;4983391;28;20710;-74
2022/09/29 07:06:11;;;;;;;30.63;17.27;;;5.00;99.90;;;;;;4992930;28;20037;-74
2022/09/29 07:08:38;;;;;;;27.47;17.57;;;5.00;99.90;;;;;;5000934;28;20116;-73
2022/09/29 07:11:08;;;;;;;31.10;19.20;;;5.10;99.90;;;;;;5003504;28;20074;-74
2022/09/29 07:13:34;;;;;;;30.90;19.77;;;5.20;99.90;;;;;;4984775;28;20073;-74
2022/09/29 07:16:09;;;;;;;36.47;21.80;;;5.40;99.90;;;;;;4985393;28;20108;-74
2022/09/29 07:18:36;;;;;;;55.97;31.00;;;5.50;99.90;;;;;;4974467;28;20065;-74
2022/09/29 07:21:10;;;;;;;95.37;48.10;;;5.60;99.90;;;;;;4983544;28;20058;-74
2022/09/29 07:23:36;;;;;;;64.70;38.23;;;5.80;99.90;;;;;;4968159;28;20485;-74
2022/09/29 07:26:04;;;;;;;105.90;54.73;;;5.90;99.90;;;;;;4985563;28;20061;-74
2022/09/29 07:28:29;;;;;;;48.87;31.50;;;6.00;99.90;;;;;;4969896;28;20073;-73
2022/09/29 07:31:04;;;;;;;52.30;31.60;;;6.00;99.90;;;;;;4986573;28;20501;-74
2022/09/29 07:33:31;;;;;;;46.80;29.70;;;6.00;99.90;;;;;;4988751;28;20046;-74
2022/09/29 07:35:59;;;;;;;42.80;27.93;;;6.10;99.90;;;;;;4984145;28;20046;-74
2022/09/29 07:38:25;;;;;;;42.77;27.07;;;6.20;99.90;;;;;;4990523;28;20061;-73
2022/09/29 07:40:51;;;;;;;42.73;27.23;;;6.10;99.90;;;;;;4992733;28;20046;-74
2022/09/29 07:43:17;;;;;;;40.17;24.93;;;6.30;99.90;;;;;;4983306;28;20092;-73
2022/09/29 07:45:48;;;;;;;36.50;23.80;;;6.40;99.90;;;;;;5005668;28;20537;-74
2022/09/29 07:48:14;;;;;;;29.90;18.95;;;6.50;99.90;;;;;;4968520;28;20142;-74
2022/09/29 07:50:40;;;;;;;46.77;27.60;;;6.50;99.90;;;;;;5003855;28;20041;-73
2022/09/29 07:53:06;;;;;;;48.20;28.97;;;6.80;99.90;;;;;;4983987;28;20405;-73
2022/09/29 07:55:32;;;;;;;52.37;31.10;;;6.90;99.90;;;;;;5000479;28;20046;-74
2022/09/29 07:57:57;;;;;;;53.90;31.30;;;7.10;99.90;;;;;;4966141;28;20057;-74
2022/09/29 08:00:23;;;;;;;59.87;32.97;;;7.40;99.90;;;;;;4983970;28;20069;-74
2022/09/29 08:02:49;;;;;;;59.93;33.27;;;7.50;99.90;;;;;;5003014;28;20045;-74
2022/09/29 08:05:14;;;;;;;56.73;34.77;;;7.60;99.90;;;;;;4987573;28;20056;-74
2022/09/29 08:07:40;;;;;;;52.77;32.83;;;7.70;99.90;;;;;;4969206;28;20139;-75
2022/09/29 08:10:06;;;;;;;55.23;34.40;;;8.00;99.90;;;;;;4982598;28;20057;-74
2022/09/29 08:12:32;;;;;;;56.63;34.67;;;8.20;99.90;;;;;;4984910;28;20129;-75
2022/09/29 08:14:59;;;;;;;53.43;33.10;;;8.40;99.90;;;;;;4972292;28;20120;-74
2022/09/29 08:17:25;;;;;;;52.90;33.37;;;8.60;99.90;;;;;;4964853;28;20053;-73
2022/09/29 08:19:51;;;;;;;53.17;34.50;;;8.60;99.90;;;;;;4967478;28;20042;-74
2022/09/29 08:22:16;;;;;;;56.43;35.07;;;8.60;99.90;;;;;;4983515;28;20053;-74
2022/09/29 08:24:43;;;;;;;52.37;33.40;;;8.70;99.90;;;;;;4989974;28;20054;-74
2022/09/29 08:27:08;;;;;;;52.70;32.57;;;8.80;99.90;;;;;;4995200;28;20058;-74
2022/09/29 08:29:34;;;;;;;56.50;36.20;;;8.90;99.90;;;;;;4993233;28;20524;-74
2022/09/29 08:32:00;;;;;;;53.90;34.37;;;8.90;99.90;;;;;;4993851;28;20128;-74
2022/09/29 08:34:26;;;;;;;50.77;34.10;;;9.20;99.90;;;;;;4960431;28;20046;-74
2022/09/29 08:36:52;;;;;;;51.77;33.57;;;9.40;99.90;;;;;;4986224;28;20556;-74
2022/09/29 08:39:19;;;;;;;48.20;32.20;;;9.50;99.90;;;;;;5011037;28;20034;-74
2022/09/29 08:42:06;;;;;;;44.57;30.97;;;9.50;99.90;;;;;;4993503;28;20046;-74
2022/09/29 08:44:57;;;;;;;46.47;31.13;;;9.60;99.90;;;;;;4992598;28;20088;-74
2022/09/29 08:47:34;;;;;;;44.92;30.02;;;9.80;99.90;;;;;;4941810;28;20137;-72
2022/09/29 08:50:09;;;;;;;43.93;29.00;;;9.90;99.90;;;;;;4977606;28;20446;-74
2022/09/29 08:52:42;;;;;;;38.77;27.37;;;9.90;99.90;;;;;;4976710;28;20046;-74
2022/09/29 08:55:17;;;;;;;42.50;29.53;;;10.00;99.90;;;;;;5011020;28;20060;-74
2022/09/29 08:57:47;;;;;;;39.03;26.83;;;10.20;99.90;;;;;;4959993;28;20266;-74
2022/09/29 09:00:16;;;;;;;37.70;25.90;;;10.40;99.90;;;;;;4976605;28;20077;-74
2022/09/29 09:03:07;;;;;;;38.10;25.10;;;10.40;99.90;;;;;;4992121;28;20053;-74
2022/09/29 09:05:49;;;;;;;31.40;22.00;;;10.50;99.90;;;;;;5010573;28;20061;-74
2022/09/29 09:08:50;;;;;;;31.00;21.20;;;10.60;99.90;;;;;;4964840;28;20077;-74
2022/09/29 09:11:35;;;;;;;22.40;16.83;;;10.80;99.90;;;;;;5010601;28;20108;-74
2022/09/29 09:14:07;;;;;;;22.05;16.35;;;10.90;99.90;;;;;;4989358;28;20074;-74
2022/09/29 09:16:47;;;;;;;23.43;15.83;;;11.00;99.90;;;;;;4983443;28;20423;-74
2022/09/29 09:19:28;;;;;;;20.17;13.73;;;11.10;99.90;;;;;;5009280;28;20085;-74
2022/09/29 09:22:24;;;;;;;18.50;12.70;;;11.30;99.90;;;;;;4989767;28;20058;-74
2022/09/29 09:25:03;;;;;;;16.50;10.45;;;11.40;99.90;;;;;;5002523;28;20038;-73
2022/09/29 09:27:46;;;;;;;15.43;10.32;;;11.50;99.90;;;;;;4967057;28;20050;-73
2022/09/29 09:30:18;;;;;;;12.82;9.65;;;11.60;99.90;;;;;;4983086;28;20085;-74
2022/09/29 09:32:53;;;;;;;13.82;9.98;;;11.70;99.90;;;;;;4998751;28;20038;-74
2022/09/29 09:35:30;;;;;;;14.27;9.90;;;11.80;99.90;;;;;;4998606;28;20050;-73
2022/09/29 09:38:01;;;;;;;16.13;10.68;;;11.90;99.90;;;;;;4984983;28;20088;-73
2022/09/29 09:40:37;;;;;;;9.80;8.30;;;12.00;99.90;;;;;;5001148;28;20173;-74
2022/09/29 09:43:10;;;;;;;10.90;8.05;;;12.10;99.90;;;;;;5000211;28;20042;-73
2022/09/29 09:45:55;;;;;;;7.68;5.93;;;12.20;99.90;;;;;;5001929;28;20039;-74
2022/09/29 09:48:45;;;;;;;7.22;5.07;;;12.30;99.90;;;;;;4956303;28;20113;-74
2022/09/29 09:51:43;;;;;;;11.23;6.50;;;12.40;99.90;;;;;;4981545;28;20182;-73
2022/09/29 09:54:15;;;;;;;5.55;4.03;;;12.50;99.90;;;;;;5000586;28;20082;-73
2022/09/29 09:56:59;;;;;;;5.45;3.70;;;12.60;99.90;;;;;;4954683;28;20384;-73
2022/09/29 09:59:45;;;;;;;4.68;3.25;;;12.60;99.90;;;;;;4983932;28;20081;-73
2022/09/29 10:02:19;;;;;;;6.05;3.15;;;12.70;99.90;;;;;;5002677;28;20042;-73
2022/09/29 10:04:49;;;;;;;4.03;3.05;;;12.70;99.90;;;;;;4990302;28;20077;-74
2022/09/29 10:07:16;;;;;;;5.00;3.28;;;12.70;99.90;;;;;;4984869;28;20117;-73
2022/09/29 10:09:42;;;;;;;5.43;3.05;;;12.70;99.90;;;;;;5004071;28;20053;-74
2022/09/29 10:12:15;;;;;;;4.60;2.60;;;12.80;99.90;;;;;;4991298;28;20048;-71
2022/09/29 10:14:48;;;;;;;2.88;2.10;;;12.90;99.90;;;;;;4981576;28;20042;-73
2022/09/29 10:17:18;;;;;;;4.28;2.70;;;13.00;99.90;;;;;;4980200;28;20497;-72
2022/09/29 10:20:04;;;;;;;5.10;3.13;;;13.10;99.90;;;;;;5012739;28;20212;-73
2022/09/29 10:22:31;;;;;;;4.85;2.72;;;13.10;99.90;;;;;;5007205;28;20114;-74
2022/09/29 10:25:07;;;;;;;6.38;2.60;;;13.20;99.90;;;;;;4988963;28;20085;-73
2022/09/29 10:27:41;;;;;;;5.30;2.80;;;13.40;99.90;;;;;;4979185;28;20124;-73
2022/09/29 10:30:32;;;;;;;3.83;3.42;;;13.80;99.90;;;;;;4982772;28;20389;-73
2022/09/29 10:33:00;;;;;;;4.85;3.22;;;13.60;99.90;;;;;;5012886;28;20052;-72
2022/09/29 10:35:36;;;;;;;4.15;2.33;;;13.70;99.90;;;;;;4992383;28;20176;-72
2022/09/29 10:38:06;;;;;;;4.78;2.10;;;13.70;99.90;;;;;;4996711;28;20049;-73
2022/09/29 10:40:34;;;;;;;4.05;2.60;;;13.60;99.90;;;;;;4992827;28;20545;-73
2022/09/29 10:43:22;;;;;;;3.13;2.25;;;13.60;99.90;;;;;;4973075;28;20144;-73
2022/09/29 10:45:49;;;;;;;4.90;2.50;;;13.50;99.90;;;;;;4996206;28;20038;-73
2022/09/29 10:48:14;;;;;;;2.00;1.58;;;13.60;99.90;;;;;;4992658;28;20060;-73
2022/09/29 10:50:49;;;;;;;2.50;1.58;;;13.40;99.90;;;;;;4992863;28;20128;-73
2022/09/29 10:53:33;;;;;;;1.80;1.48;;;13.30;99.90;;;;;;5012036;28;20045;-73
2022/09/29 10:56:01;;;;;;;3.15;1.70;;;13.30;99.90;;;;;;4982133;28;20065;-73
2022/09/29 10:58:33;;;;;;;2.38;1.63;;;13.40;99.90;;;;;;4983951;28;20042;-72
2022/09/29 11:01:19;;;;;;;2.78;1.40;;;13.50;99.90;;;;;;5004385;28;20100;-73
2022/09/29 11:03:50;;;;;;;6.07;1.70;;;13.60;99.90;;;;;;4985984;28;20038;-73
2022/09/29 11:06:16;;;;;;;;;;;13.40;99.90;;;;;;4977128;28;20382;-73
2022/09/29 11:09:00;;;;;;;2.25;1.40;;;13.50;99.90;;;;;;4998383;28;19983;-73
2022/09/29 11:11:32;;;;;;;5.88;1.73;;;13.60;99.90;;;;;;5002480;28;20060;-73
2022/09/29 11:13:59;;;;;;;4.93;1.40;;;13.70;99.90;;;;;;5002289;28;20504;-73
2022/09/29 11:16:32;;;;;;;2.17;1.27;;;13.70;99.90;;;;;;4992563;28;20056;-74
2022/09/29 11:19:11;;;;;;;3.17;0.80;;;13.80;99.90;;;;;;5000922;28;20064;-73
2022/09/29 11:21:52;;;;;;;1.83;1.40;;;13.80;99.90;;;;;;4985206;28;20054;-74
2022/09/29 11:24:27;;;;;;;2.90;1.30;;;13.90;99.90;;;;;;4986416;28;20801;-73
2022/09/29 11:27:50;;;;;;;3.38;1.08;;;14.00;99.90;;;;;;4955808;28;20080;-74
2022/09/29 11:30:39;;;;;;;1.90;0.90;;;14.10;99.90;;;;;;4902021;29;20121;-73
2022/09/29 11:33:16;;;;;;;0.70;0.35;;;14.20;99.90;;;;;;4904685;29;20055;-73
2022/09/29 11:35:57;;;;;;;1.23;0.50;;;14.20;99.90;;;;;;4972958;28;20046;-73
2022/09/29 11:38:47;;;;;;;1.40;0.50;;;14.10;99.90;;;;;;4969101;28;20552;-73
2022/09/29 11:41:45;;;;;;;1.73;0.80;;;14.00;99.90;;;;;;5002781;28;20677;-74
2022/09/29 11:44:35;;;;;;;3.55;0.50;;;13.90;99.90;;;;;;4982771;28;20050;-74
2022/09/29 11:47:24;;;;;;;1.40;0.90;;;14.00;99.90;;;;;;4987444;28;20115;-73
2022/09/29 11:50:14;;;;;;;2.25;0.63;;;13.90;99.90;;;;;;5000181;28;20125;-73
2022/09/29 11:53:13;;;;;;;1.20;0.65;;;13.90;99.90;;;;;;4987085;28;20038;-73
2022/09/29 11:55:51;;;;;;;1.48;0.60;;;13.80;99.90;;;;;;4984992;28;20085;-73
2022/09/29 11:58:44;;;;;;;1.55;0.50;;;14.00;99.90;;;;;;4977856;28;20041;-73
2022/09/29 12:01:29;;;;;;;1.63;0.30;;;14.30;99.90;;;;;;5011768;28;20058;-73
2022/09/29 12:04:16;;;;;;;1.88;0.32;;;14.50;99.90;;;;;;4993151;28;20057;-73
2022/09/29 12:07:04;;;;;;;2.17;0.47;;;14.50;99.90;;;;;;4972369;28;20065;-72
2022/09/29 12:10:01;;;;;;;1.48;0.30;;;14.40;99.90;;;;;;4973731;28;20046;-73
2022/09/29 12:13:00;;;;;;;2.45;0.13;;;14.40;99.90;;;;;;4980754;28;20525;-72
2022/09/29 12:15:28;;;;;;;0.93;0.40;;;14.30;99.90;;;;;;4997755;28;20057;-73
2022/09/29 12:17:59;;;;;;;1.75;0.40;;;14.30;99.90;;;;;;4977487;28;20505;-72
2022/09/29 12:20:28;;;;;;;;;;;14.20;99.90;;;;;;4977885;28;20057;-72
2022/09/29 12:22:57;;;;;;;0.68;0.30;;;14.20;99.90;;;;;;5010880;28;19926;-72
2022/09/29 12:25:29;;;;;;;1.17;0.20;;;14.00;99.90;;;;;;4993467;28;20092;-72
2022/09/29 12:28:03;;;;;;;0.95;0.28;;;14.00;99.90;;;;;;4994763;28;20112;-73
2022/09/29 12:30:42;;;;;;;0.40;0.20;;;13.90;99.90;;;;;;4975443;28;20453;-73
2022/09/29 12:33:20;;;;;;;0.65;0.10;;;13.90;99.90;;;;;;5004153;28;20475;-72
2022/09/29 12:39:41;;;;;;;0.32;0.20;;;13.90;99.90;;;;;;4960807;28;20054;-72
2022/09/29 12:42:54;;;;;;;0.88;0.25;;;13.90;99.90;;;;;;4989060;28;20077;-72
2022/09/29 12:45:54;;;;;;;0.95;0.20;;;13.80;99.90;;;;;;4965264;28;20049;-72
2022/09/29 12:48:33;;;;;;;3.35;0.17;;;13.80;99.90;;;;;;4994542;28;20054;-72
2022/09/29 12:51:29;;;;;;;1.70;0.20;;;13.80;99.90;;;;;;5011267;28;20440;-72
2022/09/29 12:54:27;;;;;;;0.30;0.10;;;13.80;99.90;;;;;;4998224;28;20137;-72
2022/09/29 12:57:05;;;;;;;1.30;0.22;;;13.80;99.90;;;;;;4996095;28;20057;-73
2022/09/29 12:59:39;;;;;;;1.98;0.20;;;13.80;99.90;;;;;;5010116;28;20053;-73
2022/09/29 13:02:26;;;;;;;1.27;0.30;;;13.70;99.90;;;;;;4992489;28;20037;-72
2022/09/29 13:05:19;;;;;;;0.40;0.10;;;13.80;99.90;;;;;;4991114;28;20050;-73
2022/09/29 13:08:03;;;;;;;0.73;0.10;;;13.90;99.90;;;;;;4966543;28;20076;-72
2022/09/29 13:10:41;;;;;;;1.63;0.17;;;14.00;99.90;;;;;;5001536;28;20584;-73
2022/09/29 13:13:25;;;;;;;0.98;0.15;;;14.00;99.90;;;;;;5000141;28;20485;-72
2022/09/29 13:16:01;;;;;;;2.50;0.22;;;13.90;99.90;;;;;;5004957;28;20212;-72
2022/09/29 13:18:34;;;;;;;1.75;0.10;;;13.90;99.90;;;;;;4967529;28;20046;-73
2022/09/29 13:21:17;;;;;;;2.67;0.10;;;13.70;99.90;;;;;;5002475;28;20182;-73